Main page
METAR-TAF:

METAR-TAF

Airports :

Kavala, Greece

Kavala International Airport

latitude: 40-59N, longitude: 024-36E, elevation: 5 m

Current weather observation

The report was made 19 minutes ago, at 16:20 UTC
Wind 9 kt from the Southwest
Temperature 10°C
Humidity 71%
Pressure 1015 hPa
Visibility 10 km or more
Few clouds at a height of 3000 ft

METAR: LGKV 211620Z 22009KT 9999 FEW030 10/05 Q1015

Time: 18:39 (16:39 UTC)

Forecast

The report was made 2 hours and 39 minutes ago, at 14:00 UTC
Forecast valid from 21 at 15 UTC to 21 at 24 UTC
Wind 10 kt from the West/Southwest
Visibility 10 km or more
Few clouds at a height of 2500 ft

TAF: LGKV 211400Z 2115/2124 24010KT 9999 FEW025

Weather observations and forecasts of more than 4000 airports (METAR and TAF reports).

The available stations are represented by yellow and red dots on the map.

Hover mouse over dot to see the name of the station.

Then click to see weather observations and forecasts.

To change the map : click on the green buttons with a black cross to zoom in, on the green button with a dash to zoom out, or on the green arrows for adjacent maps.


METAR-TAF: